Outage due to equipment failure. Site will not be transmitting information for the foreseeable future.

Latest Weather Observations for Rundle Island

IDQ60801

Issued at 11:05 pm EST Saturday 25 October 2014 (issued every 30 minutes, with the page automatically refreshed every 10 minutes)

About weather observations | Map of weather stations | Latest weather observations for QLD | Other Formats
Station Details ID: 039322 Name: RUNDLE ISLAND Lat: -23.53 Lon: 151.28 Height: 19.8 m
Data from the previous 72 hours. | See also: Recent months at Rundle Island
Date/Time
EST
Temp
°C
App
Temp
°C
Dew
Point
Rel
Hum
%
Delta-T
°C
Wind Press
QNH
hPa
Press
MSL
hPa
Rain
since 9 am
mm
Dir
 
Spd
km/h
Gust
km/h
Spd
kts
Gust
kts
25/11:00pm 22.3 - - - - NNE 22 28 12 15 1018.6 1018.5 -
25/10:30pm 22.3 - - - - NNE 20 26 11 14 1018.9 1018.8 -
25/10:00pm 22.4 - - - - NNE 22 26 12 14 1019.0 1018.9 -
25/09:30pm 22.4 - - - - NNE 22 26 12 14 1019.1 1019.0 -
25/09:00pm 22.4 - - - - NNE 24 28 13 15 1018.9 1018.8 -
25/08:30pm 22.5 - - - - NNE 22 26 12 14 1018.7 1018.6 -
25/08:00pm 22.6 - - - - NE 24 28 13 15 1018.6 1018.5 -
25/07:30pm 22.5 - - - - NE 22 26 12 14 1018.4 1018.3 -
25/07:00pm 22.6 - - - - NE 24 28 13 15 1018.1 1018.0 -
25/06:30pm 22.5 - - - - NE 22 26 12 14 1017.8 1017.7 -
25/06:00pm 22.6 - - - - NE 22 26 12 14 1017.6 1017.5 -
25/05:30pm 22.7 - - - - NNE 20 24 11 13 1017.4 1017.3 -
25/05:00pm 22.9 - - - - NNE 19 22 10 12 1017.3 1017.2 -
25/04:30pm 23.4 - - - - NNE 17 20 9 11 1017.2 1017.1 -
25/04:00pm 23.2 - - - - NE 17 20 9 11 1017.2 1017.1 -
25/03:30pm 23.2 - - - - NE 17 19 9 10 1017.3 1017.2 -
25/03:00pm 23.3 - - - - NE 15 19 8 10 1017.4 1017.3 -
25/02:30pm 23.7 - - - - ENE 17 19 9 10 1017.5 1017.4 -
25/02:00pm 23.8 - - - - ENE 13 17 7 9 1018.0 1017.9 -
25/01:30pm 24.4 - - - - ENE 13 17 7 9 1018.3 1018.2 -
25/01:00pm 24.3 - - - - ENE 13 15 7 8 1018.8 1018.7 -
25/12:30pm 24.2 - - - - ENE 11 15 6 8 1019.4 1019.3 -
25/12:00pm 24.2 - - - - ENE 11 13 6 7 1019.8 1019.7 -
25/11:30am 24.2 - - - - ENE 9 11 5 6 1020.3 1020.2 -
25/11:00am 24.2 - - - - ENE 9 13 5 7 1020.7 1020.6 -
25/10:30am 24.8 - - - - ENE 6 9 3 5 1021.2 1021.1 -
25/10:00am 26.2 - - - - E 4 7 2 4 1021.7 1021.6 -
25/09:30am 25.5 - - - - E 6 9 3 5 1021.7 1021.6 -
25/09:00am 25.5 - - - - E 6 9 3 5 1021.8 1021.7 -
25/08:30am 24.6 - - - - ENE 7 9 4 5 1021.8 1021.7 -
25/08:00am 23.8 - - - - ENE 6 7 3 4 1021.6 1021.5 -
25/07:30am 23.2 - - - - NNE 4 7 2 4 1021.4 1021.3 -
25/07:00am 22.5 - - - - NNE 6 9 3 5 1021.1 1021.0 -
25/06:30am 22.4 - - - - ENE 11 13 6 7 1020.5 1020.4 -
25/06:00am 21.9 - - - - NE 11 13 6 7 1020.0 1019.9 -
25/05:30am 21.7 - - - - NE 13 15 7 8 1019.8 1019.7 -
25/05:00am 21.6 - - - - NE 13 17 7 9 1019.5 1019.4 -
25/04:30am 21.5 - - - - ENE 13 17 7 9 1019.4 1019.3 -
25/04:00am 21.6 - - - - NE 13 17 7 9 1019.5 1019.4 -
25/03:30am 21.5 - - - - ENE 13 19 7 10 1019.4 1019.3 -
25/03:00am 21.7 - - - - ENE 17 20 9 11 1019.3 1019.2 -
25/02:30am 21.7 - - - - ENE 15 17 8 9 1019.4 1019.3 -
25/02:00am 21.6 - - - - ENE 15 17 8 9 1019.6 1019.5 -
25/01:30am 21.7 - - - - ENE 17 20 9 11 1019.9 1019.8 -
25/01:00am 21.8 - - - - ENE 17 19 9 10 1020.3 1020.2 -
25/12:30am 21.8 - - - - E 15 17 8 9 1020.6 1020.5 -
25/12:00am 21.8 - - - - E 17 20 9 11 1020.9 1020.8 -
 
Date/Time
EST
Temp
°C
App
Temp
°C
Dew
Point
Rel
Hum
%
Delta-T
°C
Wind Press
QNH
hPa
Press
MSL
hPa
Rain
since 9 am
mm
Dir
 
Spd
km/h
Gust
km/h
Spd
kts
Gust
kts
24/11:30pm 22.0 - - - - E 17 20 9 11 1021.1 1021.0 -
24/11:00pm 21.8 - - - - E 17 19 9 10 1021.3 1021.2 -
24/10:30pm 21.9 - - - - E 19 22 10 12 1021.6 1021.5 -
24/10:00pm 21.9 - - - - E 19 22 10 12 1021.7 1021.6 -
24/09:30pm 21.9 - - - - E 20 24 11 13 1021.5 1021.4 -
24/09:00pm 21.9 - - - - E 22 26 12 14 1021.2 1021.1 -
24/08:30pm 21.9 - - - - E 22 26 12 14 1021.0 1020.9 -
24/08:00pm 21.9 - - - - E 24 28 13 15 1020.6 1020.5 -
24/07:30pm 21.9 - - - - ESE 28 30 15 16 1020.3 1020.2 -
24/07:00pm 21.9 - - - - E 26 30 14 16 1020.0 1019.9 -
24/06:30pm 21.9 - - - - E 24 28 13 15 1019.7 1019.6 -
24/06:00pm 21.9 - - - - E 22 28 12 15 1019.4 1019.3 -
24/05:30pm 22.1 - - - - E 22 28 12 15 1019.2 1019.1 -
24/05:00pm 22.1 - - - - E 22 26 12 14 1019.1 1019.0 -
24/04:30pm 22.2 - - - - E 24 28 13 15 1019.0 1018.9 -
24/04:00pm 22.3 - - - - E 24 28 13 15 1018.9 1018.8 -
24/03:30pm 22.4 - - - - E 26 28 14 15 1018.8 1018.7 -
24/03:00pm 22.6 - - - - E 19 22 10 12 1019.5 1019.4 -
24/02:30pm 22.6 - - - - E 17 20 9 11 1019.8 1019.7 -
24/02:00pm 22.9 - - - - E 17 19 9 10 1020.2 1020.1 -
24/01:30pm 23.1 - - - - E 13 17 7 9 1020.5 1020.4 -
24/01:00pm 23.2 - - - - E 13 17 7 9 1020.8 1020.7 -
24/12:30pm 23.4 - - - - ESE 13 19 7 10 1021.1 1021.0 -
24/12:00pm 23.0 - - - - ESE 15 19 8 10 1021.4 1021.3 -
24/11:30am 23.5 - - - - ESE 13 19 7 10 1021.5 1021.4 -
24/11:00am 23.1 - - - - ESE 13 17 7 9 1021.8 1021.7 -
24/10:30am 22.7 - - - - ESE 15 17 8 9 1021.8 1021.7 -
24/10:00am 23.4 - - - - ESE 15 17 8 9 1021.8 1021.7 -
24/09:30am 22.7 - - - - ESE 13 19 7 10 1022.0 1021.9 -
24/09:00am 23.1 - - - - ESE 13 17 7 9 1021.8 1021.7 -
24/08:30am 23.2 - - - - ESE 13 17 7 9 1021.7 1021.6 -
24/08:00am 23.2 - - - - ESE 13 15 7 8 1021.4 1021.3 -
24/07:30am 22.7 - - - - ESE 11 13 6 7 1021.2 1021.1 -
24/07:00am 23.5 - - - - E 9 11 5 6 1021.1 1021.0 -
24/06:30am 22.3 - - - - ESE 11 15 6 8 1020.9 1020.8 -
24/06:00am 21.4 - - - - ESE 11 13 6 7 1020.6 1020.5 -
24/05:30am 21.1 - - - - ESE 11 15 6 8 1020.4 1020.3 -
24/05:00am 20.9 - - - - ESE 11 15 6 8 1019.9 1019.8 -
24/04:30am 20.9 - - - - ESE 9 15 5 8 1019.5 1019.4 -
24/04:00am 21.0 - - - - E 11 15 6 8 1019.5 1019.4 -
24/03:30am 21.0 - - - - ESE 11 13 6 7 1019.2 1019.1 -
24/03:00am 21.1 - - - - E 13 17 7 9 1019.4 1019.3 -
24/02:30am 21.2 - - - - E 13 17 7 9 1019.4 1019.3 -
24/02:00am 21.2 - - - - ESE 11 13 6 7 1019.8 1019.7 -
24/01:30am 21.2 - - - - E 13 17 7 9 1020.1 1020.0 -
24/01:00am 21.4 - - - - E 13 19 7 10 1020.4 1020.3 -
24/12:30am 21.4 - - - - ENE 13 17 7 9 1020.8 1020.7 -
24/12:00am 21.5 - - - - E 15 17 8 9 1021.1 1021.0 -
 
Date/Time
EST
Temp
°C
App
Temp
°C
Dew
Point
Rel
Hum
%
Delta-T
°C
Wind Press
QNH
hPa
Press
MSL
hPa
Rain
since 9 am
mm
Dir
 
Spd
km/h
Gust
km/h
Spd
kts
Gust
kts
23/11:30pm 21.6 - - - - E 13 15 7 8 1021.1 1021.0 -
23/11:00pm 21.6 - - - - ENE 13 17 7 9 1021.0 1020.9 -
23/10:30pm 21.7 - - - - E 15 19 8 10 1021.0 1020.9 -
23/10:00pm 21.6 - - - - E 15 19 8 10 1021.0 1020.9 -
23/09:30pm 21.8 - - - - E 15 19 8 10 1021.0 1020.9 -
23/09:00pm 21.8 - - - - E 19 22 10 12 1020.6 1020.5 -
23/08:30pm 21.8 - - - - E 19 22 10 12 1020.4 1020.3 -
23/08:00pm 21.7 - - - - E 17 22 9 12 1020.2 1020.1 -
23/07:30pm 21.7 - - - - E 19 22 10 12 1019.7 1019.6 -
23/07:00pm 21.6 - - - - E 22 26 12 14 1019.2 1019.1 -
23/06:30pm 21.8 - - - - E 26 32 14 17 1018.8 1018.7 -
23/06:00pm 21.9 - - - - E 30 33 16 18 1018.5 1018.4 -
23/05:30pm 21.9 - - - - E 30 33 16 18 1018.2 1018.1 -
23/05:00pm 21.9 - - - - E 30 33 16 18 1018.1 1018.0 -
23/04:30pm 22.0 - - - - E 30 35 16 19 1017.8 1017.7 -
23/04:00pm 22.0 - - - - E 30 35 16 19 1017.4 1017.3 -
23/03:30pm 22.1 - - - - E 32 35 17 19 1017.4 1017.3 -
23/03:00pm 22.0 - - - - E 30 33 16 18 1017.7 1017.6 -
23/02:30pm 22.0 - - - - E 30 33 16 18 1018.1 1018.0 -
23/02:00pm 22.2 - - - - E 26 32 14 17 1018.3 1018.2 -
23/01:30pm 22.3 - - - - E 24 28 13 15 1018.6 1018.5 -
23/01:00pm 22.3 - - - - E 22 26 12 14 1019.1 1019.0 -
23/12:30pm 22.8 - - - - ESE 20 26 11 14 1019.3 1019.2 -
23/12:00pm 21.8 - - - - SE 19 22 10 12 1020.0 1019.9 -
23/11:30am 22.3 - - - - SE 22 26 12 14 1020.4 1020.3 -
23/11:00am 21.7 - - - - SE 22 28 12 15 1020.6 1020.5 -
23/10:30am 21.8 - - - - SE 24 28 13 15 1020.9 1020.8 -
23/10:00am 21.4 - - - - SSE 26 30 14 16 1021.3 1021.2 -
23/09:30am 21.2 - - - - SSE 24 30 13 16 1021.3 1021.2 -
23/09:00am 21.1 - - - - SSE 26 30 14 16 1021.5 1021.4 -
23/08:30am 20.6 - - - - SSE 28 32 15 17 1021.6 1021.5 -
23/08:00am 20.7 - - - - SSE 28 32 15 17 1021.6 1021.5 -
23/07:30am 20.6 - - - - SSE 28 33 15 18 1021.3 1021.2 -
23/07:00am 20.4 - - - - SSE 26 30 14 16 1021.0 1020.9 -
23/06:30am 20.1 - - - - S 28 32 15 17 1020.9 1020.8 -
23/06:00am 20.1 - - - - S 28 32 15 17 1020.8 1020.7 -
23/05:30am 19.6 - - - - S 24 28 13 15 1020.6 1020.5 -
23/05:00am 19.7 - - - - S 26 30 14 16 1020.5 1020.4 -
23/04:30am 20.0 - - - - S 24 30 13 16 1020.2 1020.1 -
23/04:00am 20.2 - - - - S 24 30 13 16 1020.1 1020.0 -
23/03:30am 20.6 - - - - SSE 19 22 10 12 1020.0 1019.9 -
23/03:00am 21.0 - - - - ESE 24 30 13 16 1019.9 1019.8 -
23/02:30am 21.0 - - - - ESE 22 24 12 13 1020.3 1020.2 -
23/02:00am 21.1 - - - - ESE 22 30 12 16 1020.4 1020.3 -
23/01:30am 21.1 - - - - SE 24 32 13 17 1020.7 1020.6 -
23/01:00am 21.3 - - - - SE 28 32 15 17 1021.0 1020.9 -
23/12:30am 21.4 - - - - ESE 30 37 16 20 1021.4 1021.3 -
23/12:00am 21.4 - - - - ESE 30 37 16 20 1021.5 1021.4 -
 
Date/Time
EST
Temp
°C
App
Temp
°C
Dew
Point
Rel
Hum
%
Delta-T
°C
Wind Press
QNH
hPa
Press
MSL
hPa
Rain
since 9 am
mm
Dir
 
Spd
km/h
Gust
km/h
Spd
kts
Gust
kts
22/11:30pm 21.5 - - - - ESE 32 35 17 19 1021.7 1021.6 -

Other Formats:

Comma delimited format used in spreadsheet applications
http://www.bom.gov.au/fwo/IDQ60801/IDQ60801.94378.axf

JavaScript Object Notation format (JSON) in row-major order
http://www.bom.gov.au/fwo/IDQ60801/IDQ60801.94378.json